createdAt,value
2024-03-11T00:00:52.175Z,100381.60
2024-03-11T00:03:45.580Z,100382.77
2024-03-11T00:06:19.811Z,100376.46
2024-03-11T00:08:54.869Z,100383.45
2024-03-11T00:11:30.223Z,100380.02
2024-03-11T00:14:07.926Z,100381.30
2024-03-11T00:16:44.026Z,100379.81
2024-03-11T00:19:19.331Z,100376.53
2024-03-11T00:21:56.441Z,100379.34
2024-03-11T00:24:31.210Z,100377.06
2024-03-11T00:27:09.600Z,100371.98
2024-03-11T00:29:44.757Z,100371.17
2024-03-11T00:32:21.234Z,100368.95
2024-03-11T00:34:55.470Z,100368.38
2024-03-11T00:37:30.042Z,100359.95
2024-03-11T00:40:07.817Z,100359.36
2024-03-11T00:42:41.742Z,100358.55
2024-03-11T00:45:17.156Z,100361.11
2024-03-11T00:47:53.761Z,100360.67
2024-03-11T00:50:28.780Z,100361.67
2024-03-11T00:53:03.167Z,100368.54
2024-03-11T00:55:36.326Z,100362.73
2024-03-11T00:58:10.036Z,100358.31
2024-03-11T01:00:44.806Z,100350.54
2024-03-11T01:03:20.617Z,100345.31
2024-03-11T01:05:54.915Z,100337.52
2024-03-11T01:08:28.112Z,100338.13
2024-03-11T01:11:02.079Z,100337.59
2024-03-11T01:13:35.395Z,100343.25
2024-03-11T01:16:12.934Z,100345.48
2024-03-11T01:18:46.706Z,100342.19
2024-03-11T01:21:22.540Z,100340.81
2024-03-11T01:23:56.540Z,100333.80
2024-03-11T01:26:33.871Z,100334.50
2024-03-11T01:29:08.361Z,100332.83
2024-03-11T01:31:43.635Z,100333.77
2024-03-11T01:34:16.415Z,100336.96
2024-03-11T01:36:50.511Z,100334.76
2024-03-11T01:39:27.346Z,100336.41
2024-03-11T01:42:01.798Z,100333.95
2024-03-11T01:44:36.478Z,100328.04
2024-03-11T01:47:14.131Z,100329.43
2024-03-11T01:49:52.504Z,100328.39
2024-03-11T01:52:31.940Z,100335.09
2024-03-11T01:55:09.732Z,100335.95
2024-03-11T01:57:43.915Z,100331.75
2024-03-11T02:00:23.869Z,100331.36
2024-03-11T02:03:00.023Z,100330.42
2024-03-11T02:05:36.104Z,100331.65
2024-03-11T02:08:11.308Z,100329.50
2024-03-11T02:10:45.489Z,100326.84
2024-03-11T02:13:21.627Z,100327.98
2024-03-11T02:15:55.034Z,100329.95
2024-03-11T02:18:29.357Z,100324.90
2024-03-11T02:21:07.463Z,100321.07
2024-03-11T02:23:40.922Z,100322.00
2024-03-11T02:26:15.755Z,100320.40
2024-03-11T02:28:50.954Z,100318.02
2024-03-11T02:31:24.894Z,100319.10
2024-03-11T02:33:59.561Z,100315.91
2024-03-11T02:36:33.424Z,100312.88
2024-03-11T02:39:10.553Z,100313.80
2024-03-11T02:41:44.797Z,100318.48
2024-03-11T02:44:21.264Z,100319.30
2024-03-11T02:46:54.749Z,100316.96
2024-03-11T02:49:29.992Z,100315.30
2024-03-11T02:52:04.420Z,100318.86
2024-03-11T02:54:38.635Z,100316.19
2024-03-11T02:57:14.732Z,100315.83
2024-03-11T02:59:48.232Z,100314.02
2024-03-11T03:02:24.316Z,100311.58
2024-03-11T03:04:58.720Z,100314.63
2024-03-11T03:07:31.787Z,100314.48
2024-03-11T03:10:07.958Z,100317.11
2024-03-11T03:12:43.865Z,100315.79
2024-03-11T03:15:20.482Z,100316.13
2024-03-11T03:17:55.007Z,100314.38
2024-03-11T03:20:29.820Z,100307.55
2024-03-11T03:23:02.975Z,100305.58
2024-03-11T03:25:36.297Z,100309.29
2024-03-11T03:28:10.836Z,100304.50
2024-03-11T03:30:43.952Z,100305.63
2024-03-11T03:33:20.103Z,100301.59
2024-03-11T03:35:55.888Z,100304.13
2024-03-11T03:38:29.558Z,100301.39
2024-03-11T03:41:05.922Z,100300.23
2024-03-11T03:43:39.222Z,100307.77
2024-03-11T03:46:12.736Z,100303.36
2024-03-11T03:48:47.802Z,100310.40
2024-03-11T03:51:20.836Z,100311.27
2024-03-11T03:53:55.882Z,100308.20
2024-03-11T03:56:30.687Z,100309.33
2024-03-11T03:59:07.815Z,100311.45
2024-03-11T04:01:40.166Z,100313.11
2024-03-11T04:04:13.496Z,100307.38
2024-03-11T04:06:46.469Z,100309.25
2024-03-11T04:09:20.871Z,100305.91
2024-03-11T04:11:55.923Z,100305.89
2024-03-11T04:14:32.567Z,100305.73
2024-03-11T04:17:08.991Z,100308.23
2024-03-11T04:19:43.817Z,100311.06
2024-03-11T04:22:19.577Z,100308.40
2024-03-11T04:24:55.675Z,100308.77
2024-03-11T04:27:30.917Z,100311.81
2024-03-11T04:30:06.263Z,100309.21
2024-03-11T04:32:44.607Z,100309.17
2024-03-11T04:35:18.350Z,100305.09
2024-03-11T04:37:53.963Z,100303.77
2024-03-11T04:40:30.954Z,100302.59
2024-03-11T04:43:04.455Z,100308.05
2024-03-11T04:45:40.270Z,100302.62
2024-03-11T04:48:15.526Z,100299.61
2024-03-11T04:50:51.995Z,100307.72
2024-03-11T04:53:25.638Z,100306.16
2024-03-11T04:56:00.047Z,100306.38
2024-03-11T04:58:33.470Z,100304.08
2024-03-11T05:01:07.230Z,100308.43
2024-03-11T05:03:41.554Z,100302.51
2024-03-11T05:06:17.031Z,100300.55
2024-03-11T05:08:53.087Z,100302.65
2024-03-11T05:11:32.568Z,100299.10
2024-03-11T05:14:08.941Z,100298.98
2024-03-11T05:16:42.750Z,100301.31
2024-03-11T05:19:17.311Z,100300.34
2024-03-11T05:21:57.478Z,100300.13
2024-03-11T05:24:34.110Z,100303.04
2024-03-11T05:27:10.050Z,100304.45
2024-03-11T05:29:44.893Z,100306.09
2024-03-11T05:32:20.362Z,100306.63
2024-03-11T05:34:57.357Z,100308.94
2024-03-11T05:37:35.388Z,100307.39
2024-03-11T05:40:13.646Z,100309.41
2024-03-11T05:42:49.970Z,100306.46
2024-03-11T05:45:24.256Z,100300.27
2024-03-11T05:47:58.056Z,100305.45
2024-03-11T05:50:32.519Z,100305.92
2024-03-11T05:53:08.025Z,100308.08
2024-03-11T05:55:43.472Z,100306.91
2024-03-11T05:58:18.343Z,100313.85
2024-03-11T06:00:54.183Z,100319.13
2024-03-11T06:03:27.097Z,100314.95
2024-03-11T06:06:01.982Z,100318.02
2024-03-11T06:08:39.607Z,100322.95
2024-03-11T06:11:13.175Z,100330.31
2024-03-11T06:13:47.723Z,100336.21
2024-03-11T06:16:21.327Z,100331.33
2024-03-11T06:18:55.655Z,100331.39
2024-03-11T06:21:29.981Z,100330.39
2024-03-11T06:24:04.136Z,100330.23
2024-03-11T06:26:38.899Z,100336.31
2024-03-11T06:29:12.114Z,100340.86
2024-03-11T06:31:47.946Z,100334.92
2024-03-11T06:34:23.266Z,100339.56
2024-03-11T06:36:58.949Z,100344.13
2024-03-11T06:39:33.504Z,100341.65
2024-03-11T06:42:11.285Z,100342.58
2024-03-11T06:44:45.290Z,100347.65
2024-03-11T06:47:21.377Z,100342.34
2024-03-11T06:49:54.766Z,100344.60
2024-03-11T06:52:28.483Z,100343.90
2024-03-11T06:55:03.398Z,100344.65
2024-03-11T06:57:36.827Z,100351.17
2024-03-11T07:00:19.798Z,100348.19
2024-03-11T07:02:56.080Z,100353.89
2024-03-11T07:05:34.683Z,100352.19
2024-03-11T07:08:10.886Z,100349.29
2024-03-11T07:10:44.647Z,100351.84
2024-03-11T07:13:19.471Z,100354.58
2024-03-11T07:15:54.606Z,100356.40
2024-03-11T07:18:28.784Z,100351.72
2024-03-11T07:21:07.496Z,100355.17
2024-03-11T07:23:41.135Z,100358.30
2024-03-11T07:26:15.715Z,100361.84
2024-03-11T07:28:50.900Z,100363.78
2024-03-11T07:31:24.369Z,100364.34
2024-03-11T07:34:00.389Z,100368.46
2024-03-11T07:36:37.201Z,100365.91
2024-03-11T07:39:12.212Z,100365.95
2024-03-11T07:41:47.748Z,100363.83
2024-03-11T07:44:21.268Z,100369.80
2024-03-11T07:46:54.200Z,100376.30
2024-03-11T07:49:30.956Z,100377.24
2024-03-11T07:52:05.946Z,100377.23
2024-03-11T07:54:42.551Z,100379.52
2024-03-11T07:57:17.138Z,100382.63
2024-03-11T07:59:52.212Z,100379.59
2024-03-11T08:02:27.535Z,100380.09
2024-03-11T08:05:02.484Z,100386.90
2024-03-11T08:07:37.950Z,100388.35
2024-03-11T08:10:16.053Z,100393.73
2024-03-11T08:12:58.729Z,100394.67
2024-03-11T08:15:32.493Z,100394.93
2024-03-11T08:18:07.408Z,100392.60
2024-03-11T08:20:41.496Z,100396.96
2024-03-11T08:23:14.710Z,100390.38
2024-03-11T08:25:49.599Z,100397.11
2024-03-11T08:28:23.995Z,100398.68
2024-03-11T08:30:57.750Z,100395.60
2024-03-11T08:33:36.386Z,100402.03
2024-03-11T08:36:12.106Z,100403.25
2024-03-11T08:38:50.551Z,100397.23
2024-03-11T08:41:25.877Z,100398.63
2024-03-11T08:44:05.553Z,100404.06
2024-03-11T08:46:41.307Z,100404.81
2024-03-11T08:49:14.433Z,100401.35
2024-03-11T08:51:54.652Z,100402.08
2024-03-11T08:54:29.648Z,100401.97
2024-03-11T08:57:05.182Z,100402.93
2024-03-11T08:59:40.236Z,100410.11
2024-03-11T09:02:18.475Z,100405.09
2024-03-11T09:04:55.499Z,100402.75
2024-03-11T09:07:31.683Z,100405.68
2024-03-11T09:10:10.168Z,100406.02
2024-03-11T09:12:44.838Z,100406.08
2024-03-11T09:15:20.019Z,100407.60
2024-03-11T09:17:56.392Z,100408.84
2024-03-11T09:20:33.284Z,100406.42
2024-03-11T09:23:10.461Z,100407.48
2024-03-11T09:25:45.456Z,100406.94
2024-03-11T09:28:19.413Z,100408.64
2024-03-11T09:30:54.471Z,100414.35
2024-03-11T09:33:29.430Z,100410.94
2024-03-11T09:36:04.558Z,100414.75
2024-03-11T09:38:37.394Z,100417.24
2024-03-11T09:41:16.299Z,100416.54
2024-03-11T09:43:53.173Z,100418.07
2024-03-11T09:46:27.250Z,100418.58
2024-03-11T09:49:03.240Z,100418.92
2024-03-11T09:51:40.315Z,100421.83
2024-03-11T09:54:15.190Z,100423.05
2024-03-11T09:56:52.417Z,100421.67
2024-03-11T09:59:31.495Z,100422.20
2024-03-11T10:02:08.596Z,100419.02
2024-03-11T10:04:43.777Z,100424.02
2024-03-11T10:07:19.942Z,100423.67
2024-03-11T10:09:53.017Z,100428.33
2024-03-11T10:12:33.276Z,100423.81
2024-03-11T10:15:25.998Z,100426.17
2024-03-11T10:18:27.003Z,100424.84
2024-03-11T10:21:01.092Z,100425.80
2024-03-11T10:23:38.164Z,100427.77
2024-03-11T10:26:19.189Z,100422.85
2024-03-11T10:28:53.697Z,100425.75
2024-03-11T10:31:33.002Z,100427.58
2024-03-11T10:34:14.540Z,100426.14
2024-03-11T10:36:52.402Z,100421.56
2024-03-11T10:39:32.757Z,100417.06
2024-03-11T10:42:17.260Z,100416.88
2024-03-11T10:44:50.949Z,100414.90
2024-03-11T10:47:32.070Z,100415.95
2024-03-11T10:50:16.451Z,100410.56
2024-03-11T10:52:50.342Z,100411.95
2024-03-11T10:55:25.874Z,100413.84
2024-03-11T10:58:01.993Z,100412.42
2024-03-11T11:00:37.785Z,100411.29
2024-03-11T11:03:15.701Z,100416.48
2024-03-11T11:05:53.721Z,100413.79
2024-03-11T11:08:31.749Z,100414.62
2024-03-11T11:11:05.927Z,100413.80
2024-03-11T11:13:43.203Z,100414.48
2024-03-11T11:16:19.439Z,100415.30
2024-03-11T11:18:54.864Z,100414.92
2024-03-11T11:21:31.066Z,100416.14
2024-03-11T11:24:29.779Z,100415.52
2024-03-11T11:27:08.498Z,100416.98
2024-03-11T11:29:41.296Z,100417.88
2024-03-11T11:32:15.361Z,100417.20
2024-03-11T11:34:57.092Z,100416.77
2024-03-11T11:38:25.621Z,100415.48
2024-03-11T11:41:00.235Z,100413.09
2024-03-11T11:43:55.583Z,100414.41
2024-03-11T11:46:48.871Z,100415.99
2024-03-11T11:49:25.581Z,100414.22
2024-03-11T11:51:59.864Z,100412.98
2024-03-11T11:54:37.964Z,100412.34
2024-03-11T11:57:16.476Z,100418.15
2024-03-11T11:59:59.155Z,100416.36
2024-03-11T12:02:37.474Z,100420.86
2024-03-11T12:05:17.259Z,100422.29
2024-03-11T12:07:51.758Z,100418.98
2024-03-11T12:10:29.468Z,100420.24
2024-03-11T12:13:05.657Z,100420.24
2024-03-11T12:15:41.698Z,100416.91
2024-03-11T12:18:19.430Z,100415.37
2024-03-11T12:20:52.643Z,100412.85
2024-03-11T12:23:27.040Z,100415.45
2024-03-11T12:26:03.394Z,100419.63
2024-03-11T12:28:37.274Z,100425.66
2024-03-11T12:31:14.618Z,100418.98
2024-03-11T12:33:49.297Z,100421.17
2024-03-11T12:36:27.742Z,100423.23
2024-03-11T12:39:01.662Z,100423.48
2024-03-11T12:41:43.232Z,100428.98
2024-03-11T12:44:21.387Z,100424.39
2024-03-11T12:46:55.955Z,100429.27
2024-03-11T12:49:31.138Z,100426.32
2024-03-11T12:52:11.577Z,100427.39
2024-03-11T12:54:46.354Z,100430.89
2024-03-11T12:57:25.177Z,100427.52
2024-03-11T13:00:08.334Z,100424.75
2024-03-11T13:02:42.617Z,100424.13
2024-03-11T13:05:18.355Z,100425.77
2024-03-11T13:07:51.722Z,100427.51
2024-03-11T13:10:28.267Z,100425.61
2024-03-11T13:13:17.381Z,100422.84
2024-03-11T13:15:53.119Z,100418.82
2024-03-11T13:18:26.996Z,100416.33
2024-03-11T13:21:01.765Z,100422.62
2024-03-11T13:23:35.076Z,100426.92
2024-03-11T13:26:11.233Z,100425.15
2024-03-11T13:28:47.794Z,100424.66
2024-03-11T13:31:33.109Z,100423.90
2024-03-11T13:34:07.042Z,100425.54
2024-03-11T13:36:41.949Z,100425.06
2024-03-11T13:39:21.351Z,100426.80
2024-03-11T13:41:54.361Z,100424.76
2024-03-11T13:44:30.732Z,100426.06
2024-03-11T13:47:04.319Z,100429.63
2024-03-11T13:49:38.990Z,100426.52
2024-03-11T13:52:16.049Z,100425.74
2024-03-11T13:54:50.748Z,100421.09
2024-03-11T13:57:26.569Z,100417.47
2024-03-11T14:00:03.205Z,100418.61
2024-03-11T14:02:45.044Z,100422.11
2024-03-11T14:05:19.141Z,100422.59
2024-03-11T14:07:54.901Z,100422.01
2024-03-11T14:10:28.971Z,100416.77
2024-03-11T14:13:02.371Z,100414.91
2024-03-11T14:15:38.259Z,100417.59
2024-03-11T14:18:11.731Z,100413.96
2024-03-11T14:20:46.804Z,100409.02
2024-03-11T14:23:22.109Z,100408.31
2024-03-11T14:25:54.853Z,100415.30
2024-03-11T14:28:27.983Z,100418.73
2024-03-11T14:31:04.371Z,100419.94
2024-03-11T14:33:40.923Z,100416.75
2024-03-11T14:36:17.932Z,100420.22
2024-03-11T14:38:53.213Z,100416.59
2024-03-11T14:41:27.069Z,100419.07
2024-03-11T14:43:59.914Z,100420.30
2024-03-11T14:46:37.780Z,100419.27
2024-03-11T14:49:20.160Z,100412.52
2024-03-11T14:51:56.714Z,100413.83
2024-03-11T14:54:31.726Z,100413.73
2024-03-11T14:57:09.382Z,100415.05
2024-03-11T14:59:45.308Z,100417.45
2024-03-11T15:02:21.198Z,100416.58
2024-03-11T15:04:58.366Z,100412.48
2024-03-11T15:07:34.640Z,100416.30
2024-03-11T15:10:11.061Z,100417.02
2024-03-11T15:12:47.283Z,100416.79
2024-03-11T15:15:23.090Z,100414.35
2024-03-11T15:17:57.937Z,100422.28
2024-03-11T15:20:34.860Z,100422.45
2024-03-11T15:23:08.360Z,100427.36
2024-03-11T15:25:44.620Z,100432.13
2024-03-11T15:28:19.438Z,100432.48
2024-03-11T15:30:58.111Z,100438.96
2024-03-11T15:33:30.911Z,100439.11
2024-03-11T15:36:04.209Z,100445.65
2024-03-11T15:38:38.985Z,100443.42
2024-03-11T15:41:14.756Z,100436.54
2024-03-11T15:43:52.565Z,100441.59
2024-03-11T15:46:29.784Z,100446.83
2024-03-11T15:49:09.176Z,100455.73
2024-03-11T15:51:44.712Z,100452.66
2024-03-11T15:54:22.791Z,100454.02
2024-03-11T15:56:57.615Z,100456.46
2024-03-11T15:59:30.947Z,100455.69
2024-03-11T16:02:10.492Z,100462.19
2024-03-11T16:04:45.068Z,100469.48
2024-03-11T16:07:21.062Z,100477.97
2024-03-11T16:10:13.476Z,100480.85
2024-03-11T16:12:51.361Z,100483.77
2024-03-11T16:15:26.913Z,100488.86
2024-03-11T16:18:00.355Z,100490.20
2024-03-11T16:20:34.541Z,100492.92
2024-03-11T16:23:10.212Z,100495.95
2024-03-11T16:25:45.759Z,100494.98
2024-03-11T16:28:20.851Z,100495.38
2024-03-11T16:30:54.549Z,100503.95
2024-03-11T16:33:29.165Z,100500.80
2024-03-11T16:36:04.608Z,100505.06
2024-03-11T16:38:41.787Z,100506.73
2024-03-11T16:41:17.976Z,100503.55
2024-03-11T16:43:55.669Z,100506.12
2024-03-11T16:46:29.006Z,100505.34
2024-03-11T16:49:03.809Z,100507.70
2024-03-11T16:51:39.057Z,100507.52
2024-03-11T16:54:12.325Z,100508.45
2024-03-11T16:56:46.448Z,100512.63
2024-03-11T16:59:20.120Z,100516.56
2024-03-11T17:01:57.366Z,100517.78
2024-03-11T17:04:34.938Z,100516.66
2024-03-11T17:07:09.455Z,100516.44
2024-03-11T17:09:44.375Z,100520.78
2024-03-11T17:12:18.374Z,100525.52
2024-03-11T17:14:55.165Z,100522.54
2024-03-11T17:17:27.896Z,100525.28
2024-03-11T17:20:03.040Z,100525.42
2024-03-11T17:22:38.045Z,100520.96
2024-03-11T17:25:13.046Z,100523.05
2024-03-11T17:27:51.477Z,100525.61
2024-03-11T17:30:27.267Z,100526.71
2024-03-11T17:33:09.346Z,100529.23
2024-03-11T17:35:46.867Z,100531.34
2024-03-11T17:38:24.152Z,100531.46
2024-03-11T17:40:58.174Z,100531.96
2024-03-11T17:43:34.727Z,100532.85
2024-03-11T17:46:08.588Z,100529.80
2024-03-11T17:48:44.807Z,100529.41
2024-03-11T17:51:26.103Z,100530.06
2024-03-11T17:53:59.220Z,100531.77
2024-03-11T17:56:34.434Z,100533.30
2024-03-11T17:59:07.682Z,100538.07
2024-03-11T18:01:43.717Z,100536.75
2024-03-11T18:04:20.204Z,100537.45
2024-03-11T18:06:55.258Z,100538.73
2024-03-11T18:09:34.034Z,100537.92
2024-03-11T18:12:07.124Z,100543.20
2024-03-11T18:14:43.912Z,100539.59
2024-03-11T18:17:18.800Z,100540.94
2024-03-11T18:19:55.449Z,100539.27
2024-03-11T18:22:32.373Z,100538.48
2024-03-11T18:25:12.012Z,100537.26
2024-03-11T18:27:49.030Z,100537.52
2024-03-11T18:30:26.582Z,100535.14
2024-03-11T18:33:03.703Z,100536.55
2024-03-11T18:35:39.420Z,100539.83
2024-03-11T18:38:16.782Z,100539.64
2024-03-11T18:40:51.806Z,100544.45
2024-03-11T18:43:24.615Z,100545.27
2024-03-11T18:45:57.733Z,100544.72
2024-03-11T18:48:31.062Z,100545.06
2024-03-11T18:51:11.555Z,100539.17
2024-03-11T18:53:50.071Z,100541.02
2024-03-11T18:56:27.523Z,100540.13
2024-03-11T18:59:03.159Z,100541.45
2024-03-11T19:01:38.022Z,100542.62
2024-03-11T19:04:13.702Z,100541.54
2024-03-11T19:06:50.876Z,100543.02
2024-03-11T19:09:24.500Z,100542.94
2024-03-11T19:11:59.557Z,100544.77
2024-03-11T19:14:33.824Z,100545.73
2024-03-11T19:17:10.053Z,100552.23
2024-03-11T19:19:43.980Z,100551.14
2024-03-11T19:22:18.027Z,100556.46
2024-03-11T19:24:51.439Z,100555.98
2024-03-11T19:27:27.294Z,100560.85
2024-03-11T19:30:01.112Z,100559.59
2024-03-11T19:32:35.262Z,100557.40
2024-03-11T19:35:16.239Z,100558.52
2024-03-11T19:38:17.549Z,100556.35
2024-03-11T19:41:06.049Z,100555.42
2024-03-11T19:44:14.295Z,100557.52
2024-03-11T19:47:50.800Z,100557.11
2024-03-11T19:51:11.812Z,100556.95
2024-03-11T19:54:21.964Z,100557.27
2024-03-11T19:57:52.412Z,100560.38
2024-03-11T20:01:02.166Z,100562.12
2024-03-11T20:04:21.681Z,100563.98
2024-03-11T20:07:24.097Z,100559.88
2024-03-11T20:10:43.356Z,100563.05
2024-03-11T20:13:50.003Z,100564.05
2024-03-11T20:17:09.451Z,100563.02
2024-03-11T20:20:21.876Z,100567.13
2024-03-11T20:23:34.414Z,100569.55
2024-03-11T20:26:25.920Z,100570.12
2024-03-11T20:29:09.395Z,100571.33
2024-03-11T20:31:53.740Z,100570.99
2024-03-11T20:34:28.775Z,100575.15
2024-03-11T20:37:01.981Z,100574.21
2024-03-11T20:39:39.257Z,100575.69
2024-03-11T20:42:17.496Z,100578.36
2024-03-11T20:44:53.545Z,100577.73
2024-03-11T20:47:30.607Z,100578.71
2024-03-11T20:50:08.519Z,100574.20
2024-03-11T20:52:46.598Z,100578.59
2024-03-11T20:55:27.117Z,100575.83
2024-03-11T20:58:01.161Z,100579.13
2024-03-11T21:00:39.294Z,100578.34
2024-03-11T21:03:14.939Z,100578.86
2024-03-11T21:05:52.694Z,100575.34
2024-03-11T21:08:26.429Z,100574.63
2024-03-11T21:11:00.349Z,100573.39
2024-03-11T21:13:34.615Z,100575.10
2024-03-11T21:16:16.668Z,100576.84
2024-03-11T21:19:09.392Z,100575.73
2024-03-11T21:22:18.121Z,100578.92
2024-03-11T21:24:54.948Z,100573.36
2024-03-11T21:27:40.980Z,100572.48
2024-03-11T21:30:19.003Z,100571.97
2024-03-11T21:32:54.185Z,100571.55
2024-03-11T21:35:30.752Z,100571.83
2024-03-11T21:38:13.604Z,100573.24
2024-03-11T21:41:04.373Z,100574.74
2024-03-11T21:43:37.948Z,100573.45
2024-03-11T21:46:11.745Z,100572.91
2024-03-11T21:48:47.988Z,100569.35
2024-03-11T21:51:26.829Z,100571.77
2024-03-11T21:54:00.854Z,100571.84
2024-03-11T21:56:37.001Z,100573.09
2024-03-11T21:59:12.229Z,100572.95
2024-03-11T22:01:45.867Z,100570.42
2024-03-11T22:04:18.577Z,100575.07
2024-03-11T22:06:53.518Z,100570.86
2024-03-11T22:09:27.787Z,100570.23
2024-03-11T22:12:00.769Z,100572.48
2024-03-11T22:14:34.809Z,100571.38
2024-03-11T22:17:12.384Z,100571.44
2024-03-11T22:19:45.571Z,100573.10
2024-03-11T22:22:19.008Z,100570.14
2024-03-11T22:24:52.747Z,100570.80
2024-03-11T22:27:34.063Z,100569.05
2024-03-11T22:30:12.613Z,100563.70
2024-03-11T22:32:46.876Z,100564.30
2024-03-11T22:35:22.801Z,100561.75
2024-03-11T22:37:57.017Z,100557.55
2024-03-11T22:40:33.886Z,100551.89
2024-03-11T22:43:07.471Z,100549.88
2024-03-11T22:45:42.529Z,100548.43
2024-03-11T22:48:18.428Z,100546.90
2024-03-11T22:50:51.591Z,100547.48
2024-03-11T22:53:26.058Z,100547.80
2024-03-11T22:56:02.121Z,100545.31
2024-03-11T22:58:36.275Z,100550.60
2024-03-11T23:01:11.085Z,100555.98
2024-03-11T23:03:50.721Z,100556.33
2024-03-11T23:06:23.775Z,100556.28
2024-03-11T23:09:00.916Z,100550.98
2024-03-11T23:11:35.100Z,100551.18
2024-03-11T23:14:12.349Z,100555.20
2024-03-11T23:16:46.606Z,100555.42
2024-03-11T23:19:22.330Z,100559.59
2024-03-11T23:21:57.116Z,100557.79
2024-03-11T23:24:34.283Z,100558.04
2024-03-11T23:27:09.383Z,100559.81
2024-03-11T23:29:44.778Z,100557.80
2024-03-11T23:32:23.339Z,100557.94
2024-03-11T23:34:57.447Z,100558.50
2024-03-11T23:37:32.743Z,100559.80
2024-03-11T23:40:21.124Z,100562.38
2024-03-11T23:42:57.999Z,100558.63
2024-03-11T23:45:34.880Z,100561.48
2024-03-11T23:48:12.115Z,100562.23
2024-03-11T23:50:49.206Z,100562.62
2024-03-11T23:53:26.039Z,100560.61
2024-03-11T23:56:01.107Z,100558.99
2024-03-11T23:58:39.451Z,100553.90
